Time;durP1;ratioP1;P1;durP2;ratioP2;P2;SDS_P1;SDS_P2;PMS_P1;PMS_P2;Temp;Humidity;BMP_temperature;BMP_pressure;BME280_temperature;BME280_humidity;BME280_pressure;Samples;Min_cycle;Max_cycle;Signal;HPM_P1;HPM_P2
2022/07/31 00:01:53;;;;;;;40.38;37.97;;;;;;;23.93;100.00;100691.00;5092339;28;20045;-80
2022/07/31 00:04:22;;;;;;;48.83;45.67;;;;;;;23.92;100.00;100692.91;5088556;28;20465;-81
2022/07/31 00:06:49;;;;;;;44.80;42.13;;;;;;;24.03;100.00;100690.84;5101371;28;20105;-78
2022/07/31 00:09:16;;;;;;;47.97;44.97;;;;;;;23.91;100.00;100710.28;5092865;28;20404;-79
2022/07/31 00:11:43;;;;;;;38.08;35.28;;;;;;;23.80;100.00;100711.53;5076953;28;20098;-78
2022/07/31 00:14:12;;;;;;;39.13;36.03;;;;;;;23.73;100.00;100714.63;5111106;28;20047;-79
2022/07/31 00:16:39;;;;;;;38.20;35.25;;;;;;;23.82;100.00;100716.69;5092812;28;20054;-79
2022/07/31 00:19:06;;;;;;;41.42;38.33;;;;;;;23.77;100.00;100721.06;5096903;28;20055;-81
2022/07/31 00:21:33;;;;;;;41.95;39.05;;;;;;;23.93;100.00;100715.41;5100851;28;20112;-80
2022/07/31 00:24:00;;;;;;;44.53;41.72;;;;;;;24.07;100.00;100715.47;5100493;28;20052;-80
2022/07/31 00:26:27;;;;;;;52.03;48.88;;;;;;;23.80;100.00;100714.25;5099042;28;20047;-78
2022/07/31 00:28:54;;;;;;;45.10;41.92;;;;;;;23.63;100.00;100722.91;5099868;28;20052;-80
2022/07/31 00:31:23;;;;;;;43.92;40.88;;;;;;;23.78;100.00;100721.88;5100393;28;20043;-80
2022/07/31 00:33:50;;;;;;;44.17;40.88;;;;;;;23.67;100.00;100732.03;5099872;28;20048;-80
2022/07/31 00:36:17;;;;;;;47.55;44.08;;;;;;;24.08;100.00;100725.22;5093022;28;20052;-79
2022/07/31 00:38:44;;;;;;;46.90;43.50;;;;;;;23.93;100.00;100723.53;5091818;28;20048;-80
2022/07/31 00:41:11;;;;;;;44.20;41.00;;;;;;;23.83;100.00;100708.25;5112242;28;20051;-80
2022/07/31 00:43:38;;;;;;;46.08;42.53;;;;;;;23.64;100.00;100716.38;5102897;27;20047;-79
2022/07/31 00:46:05;;;;;;;57.75;53.85;;;;;;;23.60;100.00;100718.06;5108394;28;20044;-78
2022/07/31 00:48:34;;;;;;;50.03;46.58;;;;;;;23.87;100.00;100703.03;5105159;28;20051;-80
2022/07/31 00:51:01;;;;;;;52.00;47.55;;;;;;;23.75;100.00;100698.06;5105042;28;20112;-79
2022/07/31 00:53:28;;;;;;;46.28;42.88;;;;;;;23.55;100.00;100707.28;5098276;28;20048;-79
2022/07/31 00:55:56;;;;;;;48.42;44.85;;;;;;;23.52;100.00;100707.88;5113661;28;20101;-78
2022/07/31 00:58:23;;;;;;;46.67;43.08;;;;;;;23.64;100.00;100723.69;5102397;28;20534;-80
2022/07/31 01:00:50;;;;;;;45.20;41.90;;;;;;;23.48;100.00;100728.50;5087518;28;20051;-80
2022/07/31 01:03:17;;;;;;;46.75;43.15;;;;;;;23.62;100.00;100718.56;5087977;28;20047;-83
2022/07/31 01:05:45;;;;;;;46.47;43.17;;;;;;;23.54;100.00;100733.59;5089635;28;20388;-79
2022/07/31 01:08:12;;;;;;;49.03;45.30;;;;;;;23.59;100.00;100716.44;5099266;28;20071;-80
2022/07/31 01:10:48;;;;;;;49.38;45.83;;;;;;;23.66;100.00;100719.59;5109090;28;20052;-78
2022/07/31 01:13:24;;;;;;;53.10;48.97;;;;;;;23.63;100.00;100708.50;5095313;28;20400;-78
2022/07/31 01:15:54;;;;;;;45.10;41.70;;;;;;;23.74;100.00;100705.38;5099388;28;20124;-80
2022/07/31 01:18:24;;;;;;;45.88;42.22;;;;;;;23.65;100.00;100690.84;5093371;28;20077;-80
2022/07/31 01:20:57;;;;;;;51.00;47.00;;;;;;;23.45;100.00;100702.00;5091896;28;20058;-78
2022/07/31 01:23:45;;;;;;;40.50;36.40;;;;;;;23.55;100.00;100699.94;5094745;28;20052;-79
2022/07/31 01:26:25;;;;;;;47.65;43.35;;;;;;;23.54;100.00;100690.22;5094429;28;20105;-79
2022/07/31 01:29:10;;;;;;;59.38;54.67;;;;;;;23.65;100.00;100684.63;5102988;28;20047;-80
2022/07/31 01:31:41;;;;;;;40.83;37.20;;;;;;;23.69;100.00;100688.34;5107180;28;20546;-78
2022/07/31 01:34:24;;;;;;;40.57;37.13;;;;;;;23.57;100.00;100688.00;5106350;28;20100;-81
2022/07/31 01:36:58;;;;;;;38.67;35.25;;;;;;;23.67;100.00;100696.00;5106723;28;20071;-79
2022/07/31 01:39:26;;;;;;;47.58;43.88;;;;;;;23.58;100.00;100692.34;5089196;28;20129;-79
2022/07/31 01:41:55;;;;;;;47.78;43.97;;;;;;;23.50;100.00;100683.75;5093022;28;20098;-80
2022/07/31 01:44:26;;;;;;;48.25;44.38;;;;;;;23.32;100.00;100685.34;5089451;28;20083;-80
2022/07/31 01:46:57;;;;;;;48.95;45.22;;;;;;;23.44;100.00;100681.41;5092239;28;20052;-82
2022/07/31 01:49:27;;;;;;;54.33;50.22;;;;;;;23.54;100.00;100681.25;5096265;28;20140;-78
2022/07/31 01:51:55;;;;;;;44.55;40.45;;;;;;;23.48;100.00;100674.31;5086495;28;20056;-79
2022/07/31 01:54:23;;;;;;;48.67;44.67;;;;;;;23.51;100.00;100677.25;5095826;28;20043;-82
2022/07/31 01:56:51;;;;;;;51.10;47.00;;;;;;;23.34;100.00;100671.53;5106255;28;20049;-79
2022/07/31 01:59:20;;;;;;;59.72;55.22;;;;;;;23.29;100.00;100666.97;5107620;28;20403;-80
2022/07/31 02:01:49;;;;;;;57.50;53.40;;;;;;;23.48;100.00;100674.31;5208078;22;20495;-80
2022/07/31 02:04:18;;;;;;;50.47;46.38;;;;;;;23.42;100.00;100672.75;5080813;28;20044;-81
2022/07/31 02:06:47;;;;;;;90.93;84.93;;;;;;;23.67;100.00;100669.69;5074614;28;20048;-81
2022/07/31 02:09:17;;;;;;;53.80;49.60;;;;;;;23.42;100.00;100664.63;5075465;28;20060;-81
2022/07/31 02:11:44;;;;;;;58.25;53.67;;;;;;;23.25;100.00;100659.75;5085386;28;20048;-80
2022/07/31 02:14:12;;;;;;;58.25;53.53;;;;;;;22.95;100.00;100660.94;5075697;28;20056;-80
2022/07/31 02:16:40;;;;;;;57.25;52.95;;;;;;;23.28;100.00;100654.53;5076230;28;20060;-81
2022/07/31 02:19:10;;;;;;;51.38;47.17;;;;;;;23.42;100.00;100651.09;5077907;28;20051;-83
2022/07/31 02:21:37;;;;;;;75.50;70.43;;;;;;;23.35;100.00;100654.16;5080319;28;20048;-82
2022/07/31 02:24:04;;;;;;;58.67;53.97;;;;;;;23.14;100.00;100650.94;5077351;28;20131;-77
2022/07/31 02:26:33;;;;;;;46.03;42.03;;;;;;;23.23;100.00;100642.97;5076989;28;20048;-79
2022/07/31 02:29:01;;;;;;;56.00;51.42;;;;;;;22.66;100.00;100644.72;5079114;28;20048;-79
2022/07/31 02:31:31;;;;;;;64.40;59.40;;;;;;;23.08;100.00;100649.38;5080799;28;20055;-78
2022/07/31 02:33:59;;;;;;;52.38;48.17;;;;;;;22.98;100.00;100653.03;5079836;28;20048;-80
2022/07/31 02:36:29;;;;;;;55.20;50.88;;;;;;;23.25;100.00;100638.88;5081797;28;20052;-81
2022/07/31 02:38:58;;;;;;;53.65;49.25;;;;;;;23.40;100.00;100647.88;5079856;28;20060;-80
2022/07/31 02:41:25;;;;;;;66.22;61.50;;;;;;;23.32;100.00;100641.19;5076259;28;20408;-79
2022/07/31 02:43:53;;;;;;;53.50;49.00;;;;;;;23.19;100.00;100634.63;5076613;28;20468;-79
2022/07/31 02:46:21;;;;;;;50.47;46.10;;;;;;;22.71;100.00;100641.97;5076613;28;20044;-78
2022/07/31 02:48:49;;;;;;;56.95;52.33;;;;;;;23.05;100.00;100642.66;5076689;28;20060;-80
2022/07/31 02:51:17;;;;;;;47.97;43.53;;;;;;;23.05;100.00;100631.00;5075936;28;20114;-80
2022/07/31 02:53:45;;;;;;;51.55;47.35;;;;;;;23.16;100.00;100642.53;5078156;28;20044;-80
2022/07/31 02:56:14;;;;;;;73.85;68.43;;;;;;;22.15;100.00;100656.88;5076455;28;20071;-81
2022/07/31 02:58:41;;;;;;;55.35;50.55;;;;;;;22.05;100.00;100649.63;5076180;28;20476;-79
2022/07/31 03:01:09;;;;;;;50.88;46.35;;;;;;;22.67;100.00;100652.56;5080988;28;20048;-81
2022/07/31 03:03:36;;;;;;;44.15;40.30;;;;;;;22.86;100.00;100649.91;5089462;28;20048;-80
2022/07/31 03:06:03;;;;;;;56.03;51.25;;;;;;;22.57;100.00;100644.56;5082736;28;20050;-79
2022/07/31 03:08:29;;;;;;;63.15;57.53;;;;;;;22.65;100.00;100643.94;5082730;28;20053;-80
2022/07/31 03:10:58;;;;;;;59.65;54.65;;;;;;;22.95;100.00;100644.69;5080528;28;20150;-82
2022/07/31 03:13:27;;;;;;;50.13;45.83;;;;;;;23.10;100.00;100641.78;5075674;28;20048;-80
2022/07/31 03:15:55;;;;;;;61.17;56.08;;;;;;;23.05;100.00;100650.75;5078057;28;20105;-79
2022/07/31 03:18:22;;;;;;;48.00;44.10;;;;;;;22.30;100.00;100655.94;5078345;28;20052;-86
2022/07/31 03:20:51;;;;;;;43.83;40.03;;;;;;;22.64;100.00;100653.16;5079619;28;20078;-79
2022/07/31 03:23:21;;;;;;;51.15;46.90;;;;;;;22.45;100.00;100665.78;5078553;28;20503;-79
2022/07/31 03:25:50;;;;;;;48.50;44.40;;;;;;;22.64;100.00;100662.06;5074655;28;20101;-80
2022/07/31 03:28:19;;;;;;;50.25;46.08;;;;;;;22.40;100.00;100666.66;5078127;28;20123;-79
2022/07/31 03:30:46;;;;;;;47.08;42.70;;;;;;;22.41;100.00;100671.78;5076535;28;20048;-79
2022/07/31 03:33:13;;;;;;;46.55;42.40;;;;;;;22.43;100.00;100674.22;5078488;28;20044;-77
2022/07/31 03:35:40;;;;;;;50.58;46.28;;;;;;;22.51;100.00;100675.47;5076969;28;20055;-81
2022/07/31 03:38:12;;;;;;;48.67;44.55;;;;;;;22.72;100.00;100670.66;5077576;28;20122;-78
2022/07/31 03:40:39;;;;;;;47.50;43.25;;;;;;;-143.39;100.00;64013.03;5070716;28;20117;-79
2022/07/31 03:43:14;;;;;;;45.78;41.65;;;;;;;-143.39;100.00;64013.03;5077231;28;20412;-80
2022/07/31 03:45:51;;;;;;;45.42;41.35;;;;;;;-143.39;100.00;64013.03;5078068;28;20374;-79
2022/07/31 03:48:21;;;;;;;47.22;43.22;;;;;;;-143.39;100.00;64013.03;5078989;28;20059;-78
2022/07/31 03:50:48;;;;;;;47.10;43.08;;;;;;;-143.39;100.00;64013.03;5078212;28;20059;-79
2022/07/31 03:53:15;;;;;;;41.90;38.33;;;;;;;-143.39;100.00;64013.03;5082420;28;20139;-80
2022/07/31 03:55:43;;;;;;;47.05;42.85;;;;;;;-143.39;100.00;64013.03;5075827;28;20059;-78
2022/07/31 03:58:22;;;;;;;44.83;41.03;;;;;;;-143.39;100.00;64013.03;5078044;28;20056;-77
2022/07/31 04:00:55;;;;;;;44.03;40.15;;;;;;;-143.39;100.00;64013.03;5077306;28;20480;-79
2022/07/31 04:03:22;;;;;;;44.35;40.45;;;;;;;-143.39;100.00;64013.03;5076553;28;20396;-78
2022/07/31 04:05:54;;;;;;;42.25;38.55;;;;;;;-143.39;100.00;64013.03;5076403;28;20044;-79
2022/07/31 04:08:27;;;;;;;44.03;40.33;;;;;;;-143.39;100.00;64013.03;5080139;28;20052;-79
2022/07/31 04:10:56;;;;;;;39.20;35.78;;;;;;;-143.39;100.00;64013.03;5079968;28;20129;-79
2022/07/31 04:13:32;;;;;;;42.13;38.63;;;;;;;-143.39;100.00;64013.03;5074561;28;20056;-79
2022/07/31 04:16:01;;;;;;;33.28;30.92;;;;;;;-143.39;100.00;64013.03;5077141;28;20052;-80
2022/07/31 04:18:28;;;;;;;36.03;33.13;;;;;;;-143.39;100.00;64013.03;5077274;28;20136;-81
2022/07/31 04:20:54;;;;;;;40.17;37.15;;;;;;;-143.39;100.00;64013.03;5075575;28;20056;-79
2022/07/31 04:23:27;;;;;;;39.83;36.42;;;;;;;-143.39;100.00;64013.03;5078233;28;20044;-80
2022/07/31 04:25:55;;;;;;;42.40;39.08;;;;;;;-143.39;100.00;64013.03;5067233;28;20048;-80
2022/07/31 04:28:24;;;;;;;39.50;36.33;;;;;;;-143.39;100.00;64013.03;5073702;28;20052;-82
2022/07/31 04:30:54;;;;;;;45.67;36.08;;;;;;;-143.39;100.00;64013.03;5075357;28;20139;-81
2022/07/31 04:33:27;;;;;;;36.00;33.20;;;;;;;-143.39;100.00;64013.03;5078114;28;20117;-80
2022/07/31 04:35:55;;;;;;;39.53;36.38;;;;;;;-143.39;100.00;64013.03;5077678;28;20048;-79
2022/07/31 04:38:28;;;;;;;41.10;37.88;;;;;;;-143.39;100.00;64013.03;5077230;28;20051;-80
2022/07/31 04:40:55;;;;;;;43.95;40.42;;;;;;;-143.39;100.00;64013.03;5075718;28;20084;-80
2022/07/31 04:43:21;;;;;;;37.40;34.38;;;;;;;-143.39;100.00;64013.03;5076673;28;20063;-78
2022/07/31 04:46:13;;;;;;;41.15;38.00;;;;;;;-143.39;100.00;64013.03;5074372;28;20044;-78
2022/07/31 04:48:43;;;;;;;38.90;35.67;;;;;;;-143.39;100.00;64013.03;5075747;28;20101;-78
2022/07/31 04:51:16;;;;;;;41.53;38.28;;;;;;;-143.39;100.00;64013.03;5077910;28;20059;-79
2022/07/31 04:53:49;;;;;;;40.15;36.95;;;;;;;-143.39;100.00;64013.03;5077627;28;20055;-80
2022/07/31 04:56:34;;;;;;;;;;;;;;;-143.39;100.00;64013.03;5075531;28;20045;-80
2022/07/31 04:59:03;;;;;;;38.70;35.60;;;;;;;-143.39;100.00;64013.03;5075003;28;20090;-78
2022/07/31 05:01:30;;;;;;;39.88;36.58;;;;;;;-143.39;100.00;64013.03;5076465;28;20059;-78
2022/07/31 05:04:08;;;;;;;39.90;36.53;;;;;;;-143.39;100.00;64013.03;5077740;28;20041;-78
2022/07/31 05:06:43;;;;;;;42.08;38.78;;;;;;;-143.39;100.00;64013.03;5077313;28;20131;-80
2022/07/31 05:09:12;;;;;;;34.22;31.63;;;;;;;-143.39;100.00;64013.03;5075381;28;20044;-79
2022/07/31 05:11:42;;;;;;;31.02;28.88;;;;;;;-143.39;100.00;64013.03;5076656;28;20087;-81
2022/07/31 05:14:22;;;;;;;34.97;32.47;;;;;;;-143.39;100.00;64013.03;5077465;28;20060;-81
2022/07/31 05:16:51;;;;;;;33.35;30.95;;;;;;;-143.39;100.00;64013.03;5072688;28;20084;-81
2022/07/31 05:19:22;;;;;;;35.97;33.38;;;;;;;-143.39;100.00;64013.03;5077124;28;20054;-81
2022/07/31 05:21:49;;;;;;;38.28;35.33;;;;;;;-143.39;100.00;64013.03;5073428;28;20044;-80
2022/07/31 05:24:15;;;;;;;38.50;35.63;;;;;;;-143.39;100.00;64013.03;5073466;28;20048;-84
2022/07/31 05:26:48;;;;;;;41.15;37.75;;;;;;;-143.39;100.00;64013.03;5073343;28;20113;-81
2022/07/31 05:29:27;;;;;;;36.97;34.17;;;;;;;-143.39;100.00;64013.03;5074912;28;20118;-78
2022/07/31 05:31:54;;;;;;;34.88;32.47;;;;;;;-143.39;100.00;64013.03;5074424;28;20052;-81
2022/07/31 05:34:28;;;;;;;40.95;38.05;;;;;;;-143.39;100.00;64013.03;5077314;28;20140;-77
2022/07/31 05:37:06;;;;;;;38.28;35.38;;;;;;;-143.39;100.00;64013.03;5077469;28;20060;-82
2022/07/31 05:39:33;;;;;;;29.30;27.27;;;;;;;-143.39;100.00;64013.03;5077201;28;20541;-78
2022/07/31 05:42:00;;;;;;;31.90;29.73;;;;;;;-143.39;100.00;64013.03;5072594;28;20492;-77
2022/07/31 05:44:26;;;;;;;38.65;35.85;;;;;;;-143.39;100.00;64013.03;5073456;28;20049;-79
2022/07/31 05:46:59;;;;;;;37.10;34.30;;;;;;;-143.39;100.00;64013.03;5076379;28;20052;-77
2022/07/31 05:49:30;;;;;;;36.50;33.70;;;;;;;-143.39;100.00;64013.03;5077289;28;20431;-80
2022/07/31 05:51:57;;;;;;;33.17;30.48;;;;;;;-143.39;100.00;64013.03;5073571;28;20121;-78
2022/07/31 05:54:26;;;;;;;31.15;28.65;;;;;;;-143.39;100.00;64013.03;5073362;28;20070;-79
2022/07/31 05:56:58;;;;;;;32.65;30.17;;;;;;;-143.39;100.00;64013.03;5061710;28;20053;-78
2022/07/31 05:59:25;;;;;;;;;;;;;;;-143.39;100.00;64013.03;5074520;28;20481;-79
2022/07/31 06:01:54;;;;;;;36.00;33.30;;;;;;;-143.39;100.00;64013.03;5076560;28;19989;-78
2022/07/31 06:04:24;;;;;;;36.38;33.67;;;;;;;-143.39;100.00;64013.03;5086208;28;20045;-79
2022/07/31 06:07:06;;;;;;;32.70;30.30;;;;;;;-143.39;100.00;64013.03;5078163;28;20071;-79
2022/07/31 06:09:34;;;;;;;32.30;30.02;;;;;;;-143.39;100.00;64013.03;5078250;28;20053;-79
2022/07/31 06:12:06;;;;;;;29.50;27.50;;;;;;;-143.39;100.00;64013.03;5073758;28;20485;-79
2022/07/31 06:14:41;;;;;;;35.60;33.00;;;;;;;-143.39;100.00;64013.03;5076372;28;20041;-81
2022/07/31 06:17:08;;;;;;;32.80;30.33;;;;;;;-143.39;100.00;64013.03;5072976;28;20109;-78
2022/07/31 06:19:40;;;;;;;33.78;31.05;;;;;;;-143.39;100.00;64013.03;5074899;28;20063;-78
2022/07/31 06:22:15;;;;;;;29.63;27.33;;;;;;;-143.39;100.00;64013.03;5073491;28;20144;-77
2022/07/31 06:24:45;;;;;;;30.25;28.13;;;;;;;-143.39;100.00;64013.03;5072605;28;20400;-79
2022/07/31 06:27:12;;;;;;;32.33;30.00;;;;;;;-143.39;100.00;64013.03;5073918;28;20048;-80
2022/07/31 06:29:43;;;;;;;34.10;31.42;;;;;;;-143.39;100.00;64013.03;5075525;28;20060;-79
2022/07/31 06:32:19;;;;;;;;;;;;;;;;;;;;;
2022/07/31 06:34:57;;;;;;;29.98;27.73;;;;;;;-143.39;100.00;64013.03;5073219;28;20433;-78
2022/07/31 06:37:33;;;;;;;30.45;28.02;;;;;;;-143.39;100.00;64013.03;5074732;28;20074;-82
2022/07/31 06:40:00;;;;;;;30.13;27.77;;;;;;;-143.39;100.00;64013.03;5073077;28;20056;-78
2022/07/31 06:42:29;;;;;;;29.40;26.95;;;;;;;-143.39;100.00;64013.03;5070508;28;20049;-80
2022/07/31 06:44:55;;;;;;;30.15;27.33;;;;;;;-143.39;100.00;64013.03;5075191;28;20044;-80
2022/07/31 06:47:28;;;;;;;30.67;27.85;;;;;;;-143.39;100.00;64013.03;5073763;28;20048;-76
2022/07/31 06:49:56;;;;;;;31.33;28.83;;;;;;;-143.39;100.00;64013.03;5081359;28;20145;-77
2022/07/31 06:52:29;;;;;;;31.27;28.83;;;;;;;-143.39;100.00;64013.03;5076488;28;20044;-79
2022/07/31 06:55:10;;;;;;;30.67;28.33;;;;;;;-143.39;100.00;64013.03;5071836;28;20451;-79
2022/07/31 06:57:42;;;;;;;30.75;27.95;;;;;;;-143.39;100.00;64013.03;5072213;28;20048;-77
2022/07/31 07:00:19;;;;;;;33.20;30.40;;;;;;;-143.39;100.00;64013.03;5070157;28;20051;-79
2022/07/31 07:02:51;;;;;;;31.73;29.30;;;;;;;-143.39;100.00;64013.03;5077448;28;20052;-80
2022/07/31 07:05:21;;;;;;;;;;;;;;;-143.39;100.00;64013.03;5085824;28;20044;-80
2022/07/31 07:07:50;;;;;;;69.93;31.33;;;;;;;-143.39;100.00;64013.03;5080787;28;20003;-80
2022/07/31 07:10:21;;;;;;;66.57;30.70;;;;;;;-143.39;100.00;64013.03;5082069;28;20125;-78
2022/07/31 07:12:50;;;;;;;35.40;29.63;;;;;;;-143.39;100.00;64013.03;5078834;28;20564;-81
2022/07/31 07:15:17;;;;;;;160.95;38.70;;;;;;;-143.39;100.00;64013.03;5078504;28;20698;-77
2022/07/31 07:17:44;;;;;;;305.85;57.75;;;;;;;-143.39;100.00;64013.03;5070735;28;20051;-77
2022/07/31 07:20:16;;;;;;;150.02;40.45;;;;;;;-143.39;100.00;64013.03;5077873;28;20063;-81
2022/07/31 07:22:42;;;;;;;288.70;48.75;;;;;;;-143.39;100.00;64013.03;5073407;28;20048;-77
2022/07/31 07:25:11;;;;;;;175.80;40.45;;;;;;;-143.39;100.00;64013.03;5077711;28;20041;-81
2022/07/31 07:27:39;;;;;;;85.88;34.85;;;;;;;-143.39;100.00;64013.03;5078472;28;20048;-77
2022/07/31 07:30:10;;;;;;;78.03;34.17;;;;;;;-143.39;100.00;64013.03;5076450;28;20052;-81
2022/07/31 07:32:36;;;;;;;185.13;39.95;;;;;;;-143.39;100.00;64013.03;5076677;28;20080;-81
2022/07/31 07:35:04;;;;;;;239.20;46.83;;;;;;;-143.39;100.00;64013.03;5079334;28;20055;-79
2022/07/31 07:37:33;;;;;;;57.58;33.00;;;;;;;-143.39;100.00;64013.03;5074361;28;20472;-79
2022/07/31 07:39:59;;;;;;;164.52;41.35;;;;;;;-143.39;100.00;64013.03;5078406;28;20084;-79
2022/07/31 07:42:32;;;;;;;64.13;31.98;;;;;;;-143.39;100.00;64013.03;5077075;28;20052;-80
2022/07/31 07:45:00;;;;;;;129.65;38.55;;;;;;;-143.39;100.00;64013.03;5074753;28;20114;-78
2022/07/31 07:47:27;;;;;;;63.85;33.47;;;;;;;-143.39;100.00;64013.03;5077640;28;20044;-77
2022/07/31 07:50:01;;;;;;;264.35;46.88;;;;;;;-143.39;100.00;64013.03;5077494;28;20053;-79
2022/07/31 07:52:28;;;;;;;46.80;30.42;;;;;;;-143.39;100.00;64013.03;5075617;28;20052;-78
2022/07/31 07:54:58;;;;;;;81.65;36.33;;;;;;;-143.39;100.00;64013.03;5076699;28;20040;-78
2022/07/31 07:57:25;;;;;;;82.07;33.35;;;;;;;-143.39;100.00;64013.03;5076351;28;20044;-78
2022/07/31 07:59:52;;;;;;;54.58;33.80;;;;;;;-143.39;100.00;64013.03;5078218;28;20053;-77
2022/07/31 08:02:26;;;;;;;55.75;34.00;;;;;;;-143.39;100.00;64013.03;5075451;28;20056;-78
2022/07/31 08:04:56;;;;;;;84.07;35.30;;;;;;;-143.39;100.00;64013.03;5080013;28;20511;-79
2022/07/31 08:07:27;;;;;;;39.17;31.02;;;;;;;-143.39;100.00;64013.03;5078398;28;20064;-80
2022/07/31 08:09:58;;;;;;;37.45;33.13;;;;;;;-143.39;100.00;64013.03;5079953;28;20075;-78
2022/07/31 08:12:32;;;;;;;90.25;34.83;;;;;;;-143.39;100.00;64013.03;5082625;28;20055;-78
2022/07/31 08:14:59;;;;;;;42.40;33.28;;;;;;;-143.39;100.00;64013.03;5078362;28;20059;-78
2022/07/31 08:17:45;;;;;;;555.95;80.72;;;;;;;-143.39;100.00;64013.03;5077050;28;20055;-78
2022/07/31 08:20:13;;;;;;;78.47;34.28;;;;;;;-143.39;100.00;64013.03;5074817;28;20048;-80
2022/07/31 08:22:40;;;;;;;61.03;32.63;;;;;;;-143.39;100.00;64013.03;5074648;28;20056;-78
2022/07/31 08:25:12;;;;;;;156.02;39.90;;;;;;;-143.39;100.00;64013.03;5074753;28;20110;-79
2022/07/31 08:27:44;;;;;;;66.70;31.20;;;;;;;-143.39;100.00;64013.03;5076170;28;20159;-78
2022/07/31 08:30:12;;;;;;;61.72;32.15;;;;;;;-143.39;100.00;64013.03;5073340;28;20302;-79
2022/07/31 08:32:47;;;;;;;71.43;33.83;;;;;;;-143.39;100.00;64013.03;5076011;28;20052;-80
2022/07/31 08:35:18;;;;;;;58.70;33.10;;;;;;;-143.39;100.00;64013.03;5079920;28;20048;-79
2022/07/31 08:37:52;;;;;;;44.55;32.20;;;;;;;-143.39;100.00;64013.03;5074696;28;20396;-78
2022/07/31 08:40:24;;;;;;;38.03;34.08;;;;;;;-143.39;100.00;64013.03;5073803;28;20060;-80
2022/07/31 08:42:54;;;;;;;66.63;33.80;;;;;;;-143.39;100.00;64013.03;5076816;28;20063;-79
2022/07/31 08:45:26;;;;;;;42.33;31.70;;;;;;;-143.39;100.00;64013.03;5076768;28;20040;-78
2022/07/31 08:48:03;;;;;;;37.95;33.75;;;;;;;-143.39;100.00;64013.03;5077012;28;20052;-79
2022/07/31 08:50:30;;;;;;;36.63;33.05;;;;;;;-143.39;100.00;64013.03;5076123;28;20484;-78
2022/07/31 08:53:02;;;;;;;37.17;33.85;;;;;;;-143.39;100.00;64013.03;5075234;28;20055;-78
2022/07/31 08:55:33;;;;;;;37.85;34.28;;;;;;;-143.39;100.00;64013.03;5075051;28;20040;-78
2022/07/31 08:58:00;;;;;;;34.38;31.15;;;;;;;-143.39;100.00;64013.03;5079155;28;20056;-79
2022/07/31 09:00:28;;;;;;;35.72;32.40;;;;;;;-143.39;100.00;64013.03;5081316;28;20052;-77
2022/07/31 09:02:55;;;;;;;36.10;32.78;;;;;;;-143.39;100.00;64013.03;5077814;28;20582;-78
2022/07/31 09:05:23;;;;;;;33.55;30.65;;;;;;;-143.39;100.00;64013.03;5083252;28;20518;-77
2022/07/31 09:07:51;;;;;;;38.33;32.22;;;;;;;-143.39;100.00;64013.03;5074125;28;20420;-78
2022/07/31 09:10:27;;;;;;;34.83;31.67;;;;;;;-143.39;100.00;64013.03;5079290;28;20501;-77
2022/07/31 09:12:54;;;;;;;34.78;31.92;;;;;;;-143.39;100.00;64013.03;5076234;28;20048;-78
2022/07/31 09:15:23;;;;;;;33.42;30.80;;;;;;;-143.39;100.00;64013.03;5077544;28;20055;-80
2022/07/31 09:17:51;;;;;;;37.58;34.17;;;;;;;-143.39;100.00;64013.03;5080326;28;20045;-80
2022/07/31 09:20:20;;;;;;;36.38;33.28;;;;;;;-143.39;100.00;64013.03;5070660;28;20421;-80
2022/07/31 09:23:06;;;;;;;36.75;33.55;;;;;;;-143.39;100.00;64013.03;5078094;28;20552;-77
2022/07/31 09:25:36;;;;;;;36.00;32.97;;;;;;;-143.39;100.00;64013.03;5076177;28;20141;-78
2022/07/31 09:28:16;;;;;;;36.17;33.25;;;;;;;-143.39;100.00;64013.03;5075124;28;20477;-79
2022/07/31 09:30:56;;;;;;;37.60;34.50;;;;;;;-143.39;100.00;64013.03;5075433;28;20491;-80
2022/07/31 09:33:29;;;;;;;38.92;35.63;;;;;;;-143.39;100.00;64013.03;5076247;28;20057;-79
2022/07/31 09:36:02;;;;;;;38.13;35.03;;;;;;;-143.39;100.00;64013.03;5076143;28;20048;-77
2022/07/31 09:38:37;;;;;;;38.60;34.88;;;;;;;-143.39;100.00;64013.03;5076252;28;20055;-76
2022/07/31 09:41:14;;;;;;;40.35;36.38;;;;;;;-143.39;100.00;64013.03;5074183;28;20086;-80
2022/07/31 09:43:42;;;;;;;37.05;33.78;;;;;;;-143.39;100.00;64013.03;5076139;28;20044;-77
2022/07/31 09:46:09;;;;;;;38.95;35.65;;;;;;;-143.39;100.00;64013.03;5072237;28;20516;-80
2022/07/31 09:48:37;;;;;;;38.10;34.75;;;;;;;-143.39;100.00;64013.03;5073667;28;20048;-77
2022/07/31 09:51:06;;;;;;;39.00;35.60;;;;;;;-143.39;100.00;64013.03;5079503;28;20048;-79
2022/07/31 09:53:42;;;;;;;40.35;35.90;;;;;;;-143.39;100.00;64013.03;5076324;28;20126;-77
2022/07/31 09:56:11;;;;;;;40.20;35.10;;;;;;;-143.39;100.00;64013.03;5069850;28;20144;-79
2022/07/31 09:58:44;;;;;;;37.08;33.83;;;;;;;-143.39;100.00;64013.03;5075252;28;20677;-80
2022/07/31 10:01:17;;;;;;;35.60;32.42;;;;;;;-143.39;100.00;64013.03;5074597;28;20059;-79
2022/07/31 10:03:49;;;;;;;37.67;34.50;;;;;;;-143.39;100.00;64013.03;5080831;28;20052;-81
2022/07/31 10:06:19;;;;;;;37.20;34.08;;;;;;;-143.39;100.00;64013.03;5077022;28;20062;-79
2022/07/31 10:08:49;;;;;;;37.20;34.00;;;;;;;-143.39;100.00;64013.03;5075570;28;20113;-77
2022/07/31 10:11:19;;;;;;;36.67;33.58;;;;;;;-143.39;100.00;64013.03;5076072;28;20057;-79
2022/07/31 10:13:51;;;;;;;36.28;33.03;;;;;;;-143.39;100.00;64013.03;5076067;28;20048;-79
2022/07/31 10:16:21;;;;;;;38.75;35.55;;;;;;;-143.39;100.00;64013.03;5075766;28;20075;-78
2022/07/31 10:18:52;;;;;;;39.08;35.88;;;;;;;-143.39;100.00;64013.03;5078593;28;20057;-78
2022/07/31 10:21:29;;;;;;;39.67;36.20;;;;;;;-143.39;100.00;64013.03;5072963;28;20052;-78
2022/07/31 10:23:59;;;;;;;38.72;35.30;;;;;;;-143.39;100.00;64013.03;5072528;28;20639;-77
2022/07/31 10:26:27;;;;;;;38.85;35.85;;;;;;;-143.39;100.00;64013.03;5072996;28;20055;-79
2022/07/31 10:29:06;;;;;;;40.97;37.65;;;;;;;-143.39;100.00;64013.03;5075673;28;20044;-77
2022/07/31 10:31:33;;;;;;;40.20;36.75;;;;;;;-143.39;100.00;64013.03;5076124;28;20044;-77
2022/07/31 10:34:02;;;;;;;37.80;34.80;;;;;;;-143.39;100.00;64013.03;5076642;28;20079;-79
2022/07/31 10:36:41;;;;;;;37.42;34.53;;;;;;;-143.39;100.00;64013.03;5075742;28;20469;-78
2022/07/31 10:39:30;;;;;;;36.13;33.28;;;;;;;-143.39;100.00;64013.03;5078941;28;20421;-80
2022/07/31 10:42:05;;;;;;;35.83;33.10;;;;;;;-143.39;100.00;64013.03;5060891;28;20550;-80
2022/07/31 10:44:36;;;;;;;34.45;31.77;;;;;;;-143.39;100.00;64013.03;5075597;28;20066;-80
2022/07/31 10:47:16;;;;;;;32.88;30.27;;;;;;;-143.39;100.00;64013.03;5078946;28;20055;-80
2022/07/31 10:49:47;;;;;;;32.85;30.15;;;;;;;-143.39;100.00;64013.03;5075275;28;20113;-79
2022/07/31 10:52:28;;;;;;;35.97;33.25;;;;;;;-143.39;100.00;64013.03;5079193;28;20519;-80
2022/07/31 10:55:02;;;;;;;33.92;31.10;;;;;;;-143.39;100.00;64013.03;5078500;28;20045;-78
2022/07/31 10:57:33;;;;;;;35.42;32.63;;;;;;;-143.39;100.00;64013.03;5078145;28;20121;-79
2022/07/31 11:00:11;;;;;;;34.95;32.25;;;;;;;-143.39;100.00;64013.03;5079202;28;20091;-80
2022/07/31 11:02:40;;;;;;;33.33;30.63;;;;;;;-143.39;100.00;64013.03;5078690;28;20049;-79
2022/07/31 11:05:12;;;;;;;36.83;34.10;;;;;;;-143.39;100.00;64013.03;5085999;28;20044;-80
2022/07/31 11:07:45;;;;;;;35.63;32.85;;;;;;;-143.39;100.00;64013.03;5082066;28;20131;-78
2022/07/31 11:10:21;;;;;;;;;;;;;;;-143.39;100.00;64013.03;5082535;28;20045;-79
2022/07/31 11:13:02;;;;;;;35.03;32.22;;;;;;;-143.39;100.00;64013.03;5077437;28;19920;-77
2022/07/31 11:15:31;;;;;;;34.22;31.52;;;;;;;-143.39;100.00;64013.03;5079410;28;20048;-77